sensor_id;sensor_type;location;lat;lon;timestamp;temperature;humidity
50907;DHT22;36882;27.680;85.304;2022-10-15T00:01:12;20.80;98.50
50907;DHT22;36882;27.680;85.304;2022-10-15T00:03:44;20.80;98.50
50907;DHT22;36882;27.680;85.304;2022-10-15T00:06:19;20.90;98.70
50907;DHT22;36882;27.680;85.304;2022-10-15T00:08:49;20.90;98.10
50907;DHT22;36882;27.680;85.304;2022-10-15T00:11:23;20.90;98.30
50907;DHT22;36882;27.680;85.304;2022-10-15T00:13:56;20.80;98.60
50907;DHT22;36882;27.680;85.304;2022-10-15T00:16:27;20.80;98.40
50907;DHT22;36882;27.680;85.304;2022-10-15T00:18:59;20.90;98.30
50907;DHT22;36882;27.680;85.304;2022-10-15T00:21:29;20.80;98.20
50907;DHT22;36882;27.680;85.304;2022-10-15T00:23:58;20.80;98.30
50907;DHT22;36882;27.680;85.304;2022-10-15T00:26:29;20.90;98.30
50907;DHT22;36882;27.680;85.304;2022-10-15T00:29:01;20.80;98.20
50907;DHT22;36882;27.680;85.304;2022-10-15T00:31:32;20.90;98.10
50907;DHT22;36882;27.680;85.304;2022-10-15T00:34:02;20.90;98.30
50907;DHT22;36882;27.680;85.304;2022-10-15T00:36:34;20.80;98.40
50907;DHT22;36882;27.680;85.304;2022-10-15T00:39:06;20.80;98.40
50907;DHT22;36882;27.680;85.304;2022-10-15T00:41:40;20.80;98.30
50907;DHT22;36882;27.680;85.304;2022-10-15T00:47:34;20.80;98.30
50907;DHT22;36882;27.680;85.304;2022-10-15T00:50:23;20.80;98.50
50907;DHT22;36882;27.680;85.304;2022-10-15T00:53:06;20.80;98.70
50907;DHT22;36882;27.680;85.304;2022-10-15T00:55:40;20.90;98.60
50907;DHT22;36882;27.680;85.304;2022-10-15T00:58:14;20.90;98.60
50907;DHT22;36882;27.680;85.304;2022-10-15T01:00:44;20.90;98.80
50907;DHT22;36882;27.680;85.304;2022-10-15T01:03:15;21.00;98.70
50907;DHT22;36882;27.680;85.304;2022-10-15T01:05:48;21.00;98.60
50907;DHT22;36882;27.680;85.304;2022-10-15T01:08:19;21.00;98.30
50907;DHT22;36882;27.680;85.304;2022-10-15T01:14:03;21.10;98.00
50907;DHT22;36882;27.680;85.304;2022-10-15T01:19:59;21.30;98.00
50907;DHT22;36882;27.680;85.304;2022-10-15T01:31:50;21.40;98.00
50907;DHT22;36882;27.680;85.304;2022-10-15T01:40:12;21.70;97.60
50907;DHT22;36882;27.680;85.304;2022-10-15T01:42:57;21.70;97.40
50907;DHT22;36882;27.680;85.304;2022-10-15T01:45:50;21.80;97.30
50907;DHT22;36882;27.680;85.304;2022-10-15T01:48:22;21.90;97.20
50907;DHT22;36882;27.680;85.304;2022-10-15T01:50:59;22.00;97.10
50907;DHT22;36882;27.680;85.304;2022-10-15T01:53:29;22.00;96.60
50907;DHT22;36882;27.680;85.304;2022-10-15T01:56:07;22.20;96.70
50907;DHT22;36882;27.680;85.304;2022-10-15T01:58:41;22.30;96.80
50907;DHT22;36882;27.680;85.304;2022-10-15T02:01:12;22.30;96.10
50907;DHT22;36882;27.680;85.304;2022-10-15T02:03:47;22.40;96.10
50907;DHT22;36882;27.680;85.304;2022-10-15T02:06:40;22.50;95.80
50907;DHT22;36882;27.680;85.304;2022-10-15T02:12:23;22.70;95.00
50907;DHT22;36882;27.680;85.304;2022-10-15T02:15:10;22.70;94.90
50907;DHT22;36882;27.680;85.304;2022-10-15T02:17:59;22.60;95.20
50907;DHT22;36882;27.680;85.304;2022-10-15T02:20:44;22.40;95.50
50907;DHT22;36882;27.680;85.304;2022-10-15T02:23:20;22.20;96.10
50907;DHT22;36882;27.680;85.304;2022-10-15T02:25:52;22.20;96.60
50907;DHT22;36882;27.680;85.304;2022-10-15T02:28:24;22.30;96.70
50907;DHT22;36882;27.680;85.304;2022-10-15T02:30:57;22.50;96.00
50907;DHT22;36882;27.680;85.304;2022-10-15T02:33:29;22.50;95.50
50907;DHT22;36882;27.680;85.304;2022-10-15T02:36:01;22.60;95.30
50907;DHT22;36882;27.680;85.304;2022-10-15T02:38:32;22.40;95.70
50907;DHT22;36882;27.680;85.304;2022-10-15T02:41:04;22.40;96.10
50907;DHT22;36882;27.680;85.304;2022-10-15T02:43:36;22.50;96.20
50907;DHT22;36882;27.680;85.304;2022-10-15T02:46:08;22.60;95.80
50907;DHT22;36882;27.680;85.304;2022-10-15T02:48:39;22.60;95.90
50907;DHT22;36882;27.680;85.304;2022-10-15T02:51:10;22.70;95.90
50907;DHT22;36882;27.680;85.304;2022-10-15T02:53:39;22.90;94.70
50907;DHT22;36882;27.680;85.304;2022-10-15T02:56:10;22.90;94.90
50907;DHT22;36882;27.680;85.304;2022-10-15T02:58:40;22.80;95.10
50907;DHT22;36882;27.680;85.304;2022-10-15T03:01:10;22.90;95.80
50907;DHT22;36882;27.680;85.304;2022-10-15T03:03:40;22.80;94.70
50907;DHT22;36882;27.680;85.304;2022-10-15T03:06:09;22.80;95.10
50907;DHT22;36882;27.680;85.304;2022-10-15T03:08:39;23.00;95.30
50907;DHT22;36882;27.680;85.304;2022-10-15T03:11:11;23.30;94.80
50907;DHT22;36882;27.680;85.304;2022-10-15T03:13:41;23.50;94.30
50907;DHT22;36882;27.680;85.304;2022-10-15T03:16:11;23.60;92.70
50907;DHT22;36882;27.680;85.304;2022-10-15T03:18:41;23.80;93.00
50907;DHT22;36882;27.680;85.304;2022-10-15T03:21:11;23.80;92.00
50907;DHT22;36882;27.680;85.304;2022-10-15T03:23:41;23.80;92.80
50907;DHT22;36882;27.680;85.304;2022-10-15T03:26:10;23.80;93.40
50907;DHT22;36882;27.680;85.304;2022-10-15T03:28:40;23.90;92.60
50907;DHT22;36882;27.680;85.304;2022-10-15T03:31:10;24.20;92.20
50907;DHT22;36882;27.680;85.304;2022-10-15T03:33:42;24.20;92.10
50907;DHT22;36882;27.680;85.304;2022-10-15T03:36:12;24.20;91.10
50907;DHT22;36882;27.680;85.304;2022-10-15T03:38:42;24.10;91.80
50907;DHT22;36882;27.680;85.304;2022-10-15T03:41:12;24.00;91.50
50907;DHT22;36882;27.680;85.304;2022-10-15T03:43:42;23.90;91.40
50907;DHT22;36882;27.680;85.304;2022-10-15T03:46:11;23.90;91.70
50907;DHT22;36882;27.680;85.304;2022-10-15T03:48:41;23.90;91.20
50907;DHT22;36882;27.680;85.304;2022-10-15T03:51:11;23.90;91.50
50907;DHT22;36882;27.680;85.304;2022-10-15T03:53:47;24.00;91.80
50907;DHT22;36882;27.680;85.304;2022-10-15T03:56:18;24.10;91.10
50907;DHT22;36882;27.680;85.304;2022-10-15T03:58:49;24.10;91.30
50907;DHT22;36882;27.680;85.304;2022-10-15T04:01:19;24.20;91.50
50907;DHT22;36882;27.680;85.304;2022-10-15T04:03:52;24.20;91.00
50907;DHT22;36882;27.680;85.304;2022-10-15T04:06:22;24.30;91.20
50907;DHT22;36882;27.680;85.304;2022-10-15T04:08:51;24.40;91.40
50907;DHT22;36882;27.680;85.304;2022-10-15T04:11:21;24.60;91.20
50907;DHT22;36882;27.680;85.304;2022-10-15T04:13:51;24.70;90.60
50907;DHT22;36882;27.680;85.304;2022-10-15T04:16:20;24.70;90.20
50907;DHT22;36882;27.680;85.304;2022-10-15T04:18:50;24.70;90.50
50907;DHT22;36882;27.680;85.304;2022-10-15T04:21:19;24.70;90.70
50907;DHT22;36882;27.680;85.304;2022-10-15T04:23:49;24.60;90.40
50907;DHT22;36882;27.680;85.304;2022-10-15T04:26:18;24.50;90.10
50907;DHT22;36882;27.680;85.304;2022-10-15T04:28:48;24.60;90.20
50907;DHT22;36882;27.680;85.304;2022-10-15T04:31:18;24.60;91.00
50907;DHT22;36882;27.680;85.304;2022-10-15T04:33:49;24.70;90.10
50907;DHT22;36882;27.680;85.304;2022-10-15T04:36:19;24.80;90.90
50907;DHT22;36882;27.680;85.304;2022-10-15T04:38:48;24.90;90.50
50907;DHT22;36882;27.680;85.304;2022-10-15T04:41:18;25.10;91.50
50907;DHT22;36882;27.680;85.304;2022-10-15T04:43:47;25.20;90.10
50907;DHT22;36882;27.680;85.304;2022-10-15T04:46:17;25.30;90.10
50907;DHT22;36882;27.680;85.304;2022-10-15T04:48:51;25.20;88.60
50907;DHT22;36882;27.680;85.304;2022-10-15T04:51:26;25.20;87.80
50907;DHT22;36882;27.680;85.304;2022-10-15T04:53:57;25.20;89.90
50907;DHT22;36882;27.680;85.304;2022-10-15T04:56:29;25.20;87.50
50907;DHT22;36882;27.680;85.304;2022-10-15T04:58:59;25.10;88.00
50907;DHT22;36882;27.680;85.304;2022-10-15T05:01:29;25.20;87.60
50907;DHT22;36882;27.680;85.304;2022-10-15T05:04:00;25.30;87.90
50907;DHT22;36882;27.680;85.304;2022-10-15T05:06:32;25.30;88.70
50907;DHT22;36882;27.680;85.304;2022-10-15T05:09:03;25.50;89.30
50907;DHT22;36882;27.680;85.304;2022-10-15T05:11:35;25.50;88.90
50907;DHT22;36882;27.680;85.304;2022-10-15T05:14:07;25.50;90.60
50907;DHT22;36882;27.680;85.304;2022-10-15T05:16:38;25.50;90.00
50907;DHT22;36882;27.680;85.304;2022-10-15T05:19:09;25.50;90.60
50907;DHT22;36882;27.680;85.304;2022-10-15T05:21:40;25.50;89.80
50907;DHT22;36882;27.680;85.304;2022-10-15T05:24:10;25.50;87.50
50907;DHT22;36882;27.680;85.304;2022-10-15T05:26:40;25.50;87.60
50907;DHT22;36882;27.680;85.304;2022-10-15T05:29:10;25.40;89.10
50907;DHT22;36882;27.680;85.304;2022-10-15T05:31:40;25.50;86.60
50907;DHT22;36882;27.680;85.304;2022-10-15T05:34:12;25.40;88.10
50907;DHT22;36882;27.680;85.304;2022-10-15T05:36:41;25.30;87.90
50907;DHT22;36882;27.680;85.304;2022-10-15T05:39:12;25.20;88.70
50907;DHT22;36882;27.680;85.304;2022-10-15T05:41:43;25.20;88.10
50907;DHT22;36882;27.680;85.304;2022-10-15T05:44:14;25.40;89.80
50907;DHT22;36882;27.680;85.304;2022-10-15T05:46:44;25.60;88.10
50907;DHT22;36882;27.680;85.304;2022-10-15T05:49:15;25.70;87.00
50907;DHT22;36882;27.680;85.304;2022-10-15T05:51:47;25.90;86.50
50907;DHT22;36882;27.680;85.304;2022-10-15T05:54:18;26.00;86.10
50907;DHT22;36882;27.680;85.304;2022-10-15T05:56:48;26.10;86.00
50907;DHT22;36882;27.680;85.304;2022-10-15T05:59:19;26.20;86.00
50907;DHT22;36882;27.680;85.304;2022-10-15T06:01:49;26.20;84.70
50907;DHT22;36882;27.680;85.304;2022-10-15T06:04:20;26.30;83.20
50907;DHT22;36882;27.680;85.304;2022-10-15T06:06:50;26.40;85.30
50907;DHT22;36882;27.680;85.304;2022-10-15T06:09:21;26.40;86.20
50907;DHT22;36882;27.680;85.304;2022-10-15T06:11:52;26.40;83.70
50907;DHT22;36882;27.680;85.304;2022-10-15T06:14:22;26.60;83.40
50907;DHT22;36882;27.680;85.304;2022-10-15T06:16:53;26.70;85.80
50907;DHT22;36882;27.680;85.304;2022-10-15T06:19:23;26.70;84.80
50907;DHT22;36882;27.680;85.304;2022-10-15T06:21:54;26.80;84.60
50907;DHT22;36882;27.680;85.304;2022-10-15T06:24:24;26.70;82.70
50907;DHT22;36882;27.680;85.304;2022-10-15T06:26:54;26.80;83.00
50907;DHT22;36882;27.680;85.304;2022-10-15T06:29:25;26.90;83.50
50907;DHT22;36882;27.680;85.304;2022-10-15T06:31:55;26.90;83.30
50907;DHT22;36882;27.680;85.304;2022-10-15T06:34:25;27.10;82.90
50907;DHT22;36882;27.680;85.304;2022-10-15T06:36:56;27.20;82.20
50907;DHT22;36882;27.680;85.304;2022-10-15T06:39:26;27.20;82.60
50907;DHT22;36882;27.680;85.304;2022-10-15T06:41:57;27.30;83.30
50907;DHT22;36882;27.680;85.304;2022-10-15T06:44:27;27.30;79.50
50907;DHT22;36882;27.680;85.304;2022-10-15T06:46:57;27.20;79.90
50907;DHT22;36882;27.680;85.304;2022-10-15T06:49:28;27.20;80.80
50907;DHT22;36882;27.680;85.304;2022-10-15T06:51:58;27.30;82.30
50907;DHT22;36882;27.680;85.304;2022-10-15T06:54:30;27.30;82.20
50907;DHT22;36882;27.680;85.304;2022-10-15T06:57:02;27.40;82.10
50907;DHT22;36882;27.680;85.304;2022-10-15T06:59:33;27.50;78.70
50907;DHT22;36882;27.680;85.304;2022-10-15T07:02:09;27.40;80.00
50907;DHT22;36882;27.680;85.304;2022-10-15T07:04:40;27.40;80.00
50907;DHT22;36882;27.680;85.304;2022-10-15T07:07:10;27.50;79.40
50907;DHT22;36882;27.680;85.304;2022-10-15T07:09:42;27.60;79.70
50907;DHT22;36882;27.680;85.304;2022-10-15T07:12:13;27.60;77.80
50907;DHT22;36882;27.680;85.304;2022-10-15T07:14:44;27.60;79.00
50907;DHT22;36882;27.680;85.304;2022-10-15T07:17:16;27.60;78.70
50907;DHT22;36882;27.680;85.304;2022-10-15T07:19:46;27.70;79.70
50907;DHT22;36882;27.680;85.304;2022-10-15T07:22:17;27.60;78.50
50907;DHT22;36882;27.680;85.304;2022-10-15T07:24:48;27.70;77.60
50907;DHT22;36882;27.680;85.304;2022-10-15T07:27:19;27.60;76.80
50907;DHT22;36882;27.680;85.304;2022-10-15T07:29:49;27.60;77.90
50907;DHT22;36882;27.680;85.304;2022-10-15T07:32:20;27.50;78.60
50907;DHT22;36882;27.680;85.304;2022-10-15T07:34:50;27.60;79.20
50907;DHT22;36882;27.680;85.304;2022-10-15T07:37:21;27.70;76.50
50907;DHT22;36882;27.680;85.304;2022-10-15T07:39:51;27.70;75.80
50907;DHT22;36882;27.680;85.304;2022-10-15T07:42:22;27.70;75.10
50907;DHT22;36882;27.680;85.304;2022-10-15T07:44:52;27.70;75.10
50907;DHT22;36882;27.680;85.304;2022-10-15T07:47:23;27.60;76.90
50907;DHT22;36882;27.680;85.304;2022-10-15T07:49:53;27.60;82.90
50907;DHT22;36882;27.680;85.304;2022-10-15T07:52:24;27.40;84.80
50907;DHT22;36882;27.680;85.304;2022-10-15T07:54:54;27.20;86.00
50907;DHT22;36882;27.680;85.304;2022-10-15T07:57:24;27.00;85.70
50907;DHT22;36882;27.680;85.304;2022-10-15T07:59:55;26.80;86.80
50907;DHT22;36882;27.680;85.304;2022-10-15T08:02:25;26.70;87.20
50907;DHT22;36882;27.680;85.304;2022-10-15T08:04:55;26.70;88.10
50907;DHT22;36882;27.680;85.304;2022-10-15T08:07:26;26.80;87.50
50907;DHT22;36882;27.680;85.304;2022-10-15T08:09:56;27.00;87.00
50907;DHT22;36882;27.680;85.304;2022-10-15T08:12:26;27.10;86.80
50907;DHT22;36882;27.680;85.304;2022-10-15T08:14:57;27.20;86.60
50907;DHT22;36882;27.680;85.304;2022-10-15T08:17:27;27.20;85.80
50907;DHT22;36882;27.680;85.304;2022-10-15T08:19:57;27.30;87.10
50907;DHT22;36882;27.680;85.304;2022-10-15T08:22:28;27.40;87.20
50907;DHT22;36882;27.680;85.304;2022-10-15T08:24:59;27.40;85.90
50907;DHT22;36882;27.680;85.304;2022-10-15T08:27:29;27.50;86.70
50907;DHT22;36882;27.680;85.304;2022-10-15T08:29:59;27.60;86.80
50907;DHT22;36882;27.680;85.304;2022-10-15T08:32:30;27.60;85.80
50907;DHT22;36882;27.680;85.304;2022-10-15T08:35:00;27.60;85.80
50907;DHT22;36882;27.680;85.304;2022-10-15T08:37:31;27.60;86.50
50907;DHT22;36882;27.680;85.304;2022-10-15T08:40:02;27.60;86.00
50907;DHT22;36882;27.680;85.304;2022-10-15T08:42:42;27.50;85.00
50907;DHT22;36882;27.680;85.304;2022-10-15T08:45:18;27.30;85.10
50907;DHT22;36882;27.680;85.304;2022-10-15T08:47:59;27.10;86.10
50907;DHT22;36882;27.680;85.304;2022-10-15T08:51:01;27.10;85.90
50907;DHT22;36882;27.680;85.304;2022-10-15T08:53:44;27.10;85.60
50907;DHT22;36882;27.680;85.304;2022-10-15T08:56:23;27.00;86.70
50907;DHT22;36882;27.680;85.304;2022-10-15T08:59:11;26.90;85.40
50907;DHT22;36882;27.680;85.304;2022-10-15T09:01:56;26.80;87.20
50907;DHT22;36882;27.680;85.304;2022-10-15T09:04:39;26.70;87.00
50907;DHT22;36882;27.680;85.304;2022-10-15T09:07:22;26.60;88.00
50907;DHT22;36882;27.680;85.304;2022-10-15T09:10:26;26.60;88.20
50907;DHT22;36882;27.680;85.304;2022-10-15T09:13:17;26.70;87.10
50907;DHT22;36882;27.680;85.304;2022-10-15T09:15:55;26.60;87.80
50907;DHT22;36882;27.680;85.304;2022-10-15T09:18:29;26.60;87.40
50907;DHT22;36882;27.680;85.304;2022-10-15T09:21:03;26.60;88.80
50907;DHT22;36882;27.680;85.304;2022-10-15T09:23:34;26.60;88.10
50907;DHT22;36882;27.680;85.304;2022-10-15T09:26:25;26.50;89.00
50907;DHT22;36882;27.680;85.304;2022-10-15T09:29:14;26.40;90.10
50907;DHT22;36882;27.680;85.304;2022-10-15T09:34:58;26.50;88.20
50907;DHT22;36882;27.680;85.304;2022-10-15T09:37:42;26.30;89.10
50907;DHT22;36882;27.680;85.304;2022-10-15T09:43:13;26.40;89.90
50907;DHT22;36882;27.680;85.304;2022-10-15T09:45:47;26.40;90.60
50907;DHT22;36882;27.680;85.304;2022-10-15T09:48:18;26.40;90.80
50907;DHT22;36882;27.680;85.304;2022-10-15T09:51:01;26.40;90.10
50907;DHT22;36882;27.680;85.304;2022-10-15T09:53:59;26.40;90.90
50907;DHT22;36882;27.680;85.304;2022-10-15T09:56:44;26.40;90.90
50907;DHT22;36882;27.680;85.304;2022-10-15T09:59:18;26.30;91.00
50907;DHT22;36882;27.680;85.304;2022-10-15T10:02:17;26.30;91.30
50907;DHT22;36882;27.680;85.304;2022-10-15T10:04:47;26.30;91.20
50907;DHT22;36882;27.680;85.304;2022-10-15T10:10:00;26.10;91.00
50907;DHT22;36882;27.680;85.304;2022-10-15T10:12:34;26.00;90.20
50907;DHT22;36882;27.680;85.304;2022-10-15T10:15:21;26.00;90.90
50907;DHT22;36882;27.680;85.304;2022-10-15T10:17:55;26.00;91.70
50907;DHT22;36882;27.680;85.304;2022-10-15T10:20:30;26.10;91.00
50907;DHT22;36882;27.680;85.304;2022-10-15T10:23:08;26.00;90.80
50907;DHT22;36882;27.680;85.304;2022-10-15T10:25:49;26.00;90.80
50907;DHT22;36882;27.680;85.304;2022-10-15T10:31:11;25.90;90.30
50907;DHT22;36882;27.680;85.304;2022-10-15T10:33:45;25.70;90.60
50907;DHT22;36882;27.680;85.304;2022-10-15T10:36:26;25.60;91.10
50907;DHT22;36882;27.680;85.304;2022-10-15T10:39:24;25.70;91.30
50907;DHT22;36882;27.680;85.304;2022-10-15T10:42:24;25.60;91.70
50907;DHT22;36882;27.680;85.304;2022-10-15T10:44:54;25.60;91.70
50907;DHT22;36882;27.680;85.304;2022-10-15T10:47:25;25.60;92.00
50907;DHT22;36882;27.680;85.304;2022-10-15T10:49:56;25.60;92.10
50907;DHT22;36882;27.680;85.304;2022-10-15T10:52:31;25.60;92.20
50907;DHT22;36882;27.680;85.304;2022-10-15T10:55:19;25.50;92.20
50907;DHT22;36882;27.680;85.304;2022-10-15T10:57:54;25.40;92.30
50907;DHT22;36882;27.680;85.304;2022-10-15T11:00:40;25.30;92.50
50907;DHT22;36882;27.680;85.304;2022-10-15T11:03:33;25.10;92.30
50907;DHT22;36882;27.680;85.304;2022-10-15T11:15:16;25.00;92.30
50907;DHT22;36882;27.680;85.304;2022-10-15T11:24:10;24.80;93.10
50907;DHT22;36882;27.680;85.304;2022-10-15T11:26:59;24.70;92.70
50907;DHT22;36882;27.680;85.304;2022-10-15T11:35:46;24.50;92.80
50907;DHT22;36882;27.680;85.304;2022-10-15T11:38:50;24.40;92.90
50907;DHT22;36882;27.680;85.304;2022-10-15T11:41:46;24.30;93.20
50907;DHT22;36882;27.680;85.304;2022-10-15T11:50:29;24.00;93.50
50907;DHT22;36882;27.680;85.304;2022-10-15T11:53:22;24.00;93.70
50907;DHT22;36882;27.680;85.304;2022-10-15T11:56:04;24.00;93.80
50907;DHT22;36882;27.680;85.304;2022-10-15T11:58:37;24.10;93.80
50907;DHT22;36882;27.680;85.304;2022-10-15T12:01:19;24.00;93.50
50907;DHT22;36882;27.680;85.304;2022-10-15T12:03:56;23.90;93.80
50907;DHT22;36882;27.680;85.304;2022-10-15T12:06:34;23.90;93.70
50907;DHT22;36882;27.680;85.304;2022-10-15T12:09:07;23.90;94.20
50907;DHT22;36882;27.680;85.304;2022-10-15T12:11:52;23.90;93.90
50907;DHT22;36882;27.680;85.304;2022-10-15T12:17:51;23.80;94.40
50907;DHT22;36882;27.680;85.304;2022-10-15T12:20:23;23.80;94.30
50907;DHT22;36882;27.680;85.304;2022-10-15T12:22:58;23.60;94.60
50907;DHT22;36882;27.680;85.304;2022-10-15T12:25:43;23.60;94.80
50907;DHT22;36882;27.680;85.304;2022-10-15T12:28:23;23.60;94.70
50907;DHT22;36882;27.680;85.304;2022-10-15T12:31:02;23.50;94.90
50907;DHT22;36882;27.680;85.304;2022-10-15T12:33:38;23.50;94.80
50907;DHT22;36882;27.680;85.304;2022-10-15T12:36:26;23.60;95.00
50907;DHT22;36882;27.680;85.304;2022-10-15T12:39:05;23.50;95.10
50907;DHT22;36882;27.680;85.304;2022-10-15T12:41:54;23.50;95.40
50907;DHT22;36882;27.680;85.304;2022-10-15T12:44:30;23.50;95.40
50907;DHT22;36882;27.680;85.304;2022-10-15T12:47:00;23.50;95.40
50907;DHT22;36882;27.680;85.304;2022-10-15T12:49:45;23.40;95.20
50907;DHT22;36882;27.680;85.304;2022-10-15T12:55:33;23.40;95.60
50907;DHT22;36882;27.680;85.304;2022-10-15T12:58:32;23.30;95.50
50907;DHT22;36882;27.680;85.304;2022-10-15T13:04:03;23.30;95.60
50907;DHT22;36882;27.680;85.304;2022-10-15T13:06:33;23.30;95.40
50907;DHT22;36882;27.680;85.304;2022-10-15T13:09:26;23.30;95.30
50907;DHT22;36882;27.680;85.304;2022-10-15T13:11:59;23.20;95.20
50907;DHT22;36882;27.680;85.304;2022-10-15T13:14:33;23.20;95.50
50907;DHT22;36882;27.680;85.304;2022-10-15T13:17:15;23.10;95.70
50907;DHT22;36882;27.680;85.304;2022-10-15T13:19:55;23.00;95.60
50907;DHT22;36882;27.680;85.304;2022-10-15T13:22:28;23.10;95.70
50907;DHT22;36882;27.680;85.304;2022-10-15T13:24:59;23.00;95.70
50907;DHT22;36882;27.680;85.304;2022-10-15T13:27:35;23.00;95.80
50907;DHT22;36882;27.680;85.304;2022-10-15T13:30:15;23.00;95.80
50907;DHT22;36882;27.680;85.304;2022-10-15T13:32:51;23.00;95.90
50907;DHT22;36882;27.680;85.304;2022-10-15T13:35:28;23.00;96.10
50907;DHT22;36882;27.680;85.304;2022-10-15T13:38:03;23.00;95.90
50907;DHT22;36882;27.680;85.304;2022-10-15T13:40:33;23.00;96.00
50907;DHT22;36882;27.680;85.304;2022-10-15T13:43:03;23.00;95.90
50907;DHT22;36882;27.680;85.304;2022-10-15T13:45:34;23.00;96.00
50907;DHT22;36882;27.680;85.304;2022-10-15T13:48:10;23.10;96.20
50907;DHT22;36882;27.680;85.304;2022-10-15T13:50:41;23.00;96.20
50907;DHT22;36882;27.680;85.304;2022-10-15T13:56:03;23.00;96.00
50907;DHT22;36882;27.680;85.304;2022-10-15T13:58:34;23.00;96.40
50907;DHT22;36882;27.680;85.304;2022-10-15T14:01:21;22.90;96.50
50907;DHT22;36882;27.680;85.304;2022-10-15T14:03:54;22.90;96.50
50907;DHT22;36882;27.680;85.304;2022-10-15T14:06:27;23.00;96.50
50907;DHT22;36882;27.680;85.304;2022-10-15T14:09:19;23.00;96.30
50907;DHT22;36882;27.680;85.304;2022-10-15T14:11:53;23.00;96.10
50907;DHT22;36882;27.680;85.304;2022-10-15T14:14:33;23.00;96.10
50907;DHT22;36882;27.680;85.304;2022-10-15T14:17:07;22.90;96.30
50907;DHT22;36882;27.680;85.304;2022-10-15T14:19:47;22.90;96.60
50907;DHT22;36882;27.680;85.304;2022-10-15T14:22:39;22.90;96.50
50907;DHT22;36882;27.680;85.304;2022-10-15T14:25:13;22.90;96.70
50907;DHT22;36882;27.680;85.304;2022-10-15T14:27:48;22.90;96.40
50907;DHT22;36882;27.680;85.304;2022-10-15T14:30:30;22.90;96.80
50907;DHT22;36882;27.680;85.304;2022-10-15T14:33:01;22.90;96.60
50907;DHT22;36882;27.680;85.304;2022-10-15T14:35:33;22.90;96.90
50907;DHT22;36882;27.680;85.304;2022-10-15T14:38:15;22.80;96.60
50907;DHT22;36882;27.680;85.304;2022-10-15T14:41:05;22.90;96.50
50907;DHT22;36882;27.680;85.304;2022-10-15T14:44:00;22.90;96.50
50907;DHT22;36882;27.680;85.304;2022-10-15T14:46:39;22.90;96.70
50907;DHT22;36882;27.680;85.304;2022-10-15T14:49:21;22.90;96.60
50907;DHT22;36882;27.680;85.304;2022-10-15T14:51:56;22.90;96.60
50907;DHT22;36882;27.680;85.304;2022-10-15T14:54:33;22.90;96.60
50907;DHT22;36882;27.680;85.304;2022-10-15T14:57:04;22.90;96.60
50907;DHT22;36882;27.680;85.304;2022-10-15T14:59:41;22.90;96.70
50907;DHT22;36882;27.680;85.304;2022-10-15T15:02:14;22.90;96.90
50907;DHT22;36882;27.680;85.304;2022-10-15T15:05:03;22.80;96.90
50907;DHT22;36882;27.680;85.304;2022-10-15T15:07:35;22.80;97.10
50907;DHT22;36882;27.680;85.304;2022-10-15T15:10:06;22.70;97.10
50907;DHT22;36882;27.680;85.304;2022-10-15T15:12:38;22.70;97.10
50907;DHT22;36882;27.680;85.304;2022-10-15T15:15:14;22.70;96.90
50907;DHT22;36882;27.680;85.304;2022-10-15T15:17:44;22.70;96.90
50907;DHT22;36882;27.680;85.304;2022-10-15T15:20:16;22.70;96.90
50907;DHT22;36882;27.680;85.304;2022-10-15T15:22:50;22.70;97.00
50907;DHT22;36882;27.680;85.304;2022-10-15T15:25:26;22.70;97.00
50907;DHT22;36882;27.680;85.304;2022-10-15T15:27:58;22.70;96.90
50907;DHT22;36882;27.680;85.304;2022-10-15T15:30:29;22.60;97.00
50907;DHT22;36882;27.680;85.304;2022-10-15T15:33:00;22.60;97.00
50907;DHT22;36882;27.680;85.304;2022-10-15T15:38:22;22.60;96.90
50907;DHT22;36882;27.680;85.304;2022-10-15T15:40:52;22.60;97.50
50907;DHT22;36882;27.680;85.304;2022-10-15T15:43:22;22.50;97.20
50907;DHT22;36882;27.680;85.304;2022-10-15T15:45:52;22.50;97.20
50907;DHT22;36882;27.680;85.304;2022-10-15T15:48:22;22.50;97.30
50907;DHT22;36882;27.680;85.304;2022-10-15T15:50:52;22.30;97.70
50907;DHT22;36882;27.680;85.304;2022-10-15T15:53:22;22.30;97.90
50907;DHT22;36882;27.680;85.304;2022-10-15T15:55:51;22.30;97.90
50907;DHT22;36882;27.680;85.304;2022-10-15T15:58:22;22.30;97.70
50907;DHT22;36882;27.680;85.304;2022-10-15T16:00:51;22.30;97.60
50907;DHT22;36882;27.680;85.304;2022-10-15T16:03:21;22.20;97.80
50907;DHT22;36882;27.680;85.304;2022-10-15T16:05:51;22.20;97.60
50907;DHT22;36882;27.680;85.304;2022-10-15T16:08:22;22.20;97.60
50907;DHT22;36882;27.680;85.304;2022-10-15T16:10:52;22.20;97.80
50907;DHT22;36882;27.680;85.304;2022-10-15T16:13:22;22.20;97.80
50907;DHT22;36882;27.680;85.304;2022-10-15T16:15:51;22.20;97.70
50907;DHT22;36882;27.680;85.304;2022-10-15T16:18:22;22.10;97.80
50907;DHT22;36882;27.680;85.304;2022-10-15T16:20:52;22.10;97.90
50907;DHT22;36882;27.680;85.304;2022-10-15T16:23:22;22.10;98.10
50907;DHT22;36882;27.680;85.304;2022-10-15T16:25:52;22.10;98.20
50907;DHT22;36882;27.680;85.304;2022-10-15T16:28:25;22.00;98.20
50907;DHT22;36882;27.680;85.304;2022-10-15T16:30:54;22.00;98.10
50907;DHT22;36882;27.680;85.304;2022-10-15T16:33:41;22.10;98.00
50907;DHT22;36882;27.680;85.304;2022-10-15T16:36:11;22.10;98.10
50907;DHT22;36882;27.680;85.304;2022-10-15T16:38:43;22.10;98.00
50907;DHT22;36882;27.680;85.304;2022-10-15T16:41:14;22.00;98.10
50907;DHT22;36882;27.680;85.304;2022-10-15T16:43:47;22.00;98.20
50907;DHT22;36882;27.680;85.304;2022-10-15T16:46:18;22.10;98.10
50907;DHT22;36882;27.680;85.304;2022-10-15T16:48:53;22.10;98.00
50907;DHT22;36882;27.680;85.304;2022-10-15T16:51:24;22.10;97.80
50907;DHT22;36882;27.680;85.304;2022-10-15T16:53:54;22.10;97.90
50907;DHT22;36882;27.680;85.304;2022-10-15T16:56:28;22.20;97.90
50907;DHT22;36882;27.680;85.304;2022-10-15T16:58:58;22.10;97.90
50907;DHT22;36882;27.680;85.304;2022-10-15T17:01:28;22.10;98.00
50907;DHT22;36882;27.680;85.304;2022-10-15T17:03:59;22.00;97.90
50907;DHT22;36882;27.680;85.304;2022-10-15T17:06:30;22.00;98.00
50907;DHT22;36882;27.680;85.304;2022-10-15T17:09:02;22.00;98.00
50907;DHT22;36882;27.680;85.304;2022-10-15T17:11:34;21.90;98.00
50907;DHT22;36882;27.680;85.304;2022-10-15T17:14:07;21.90;98.10
50907;DHT22;36882;27.680;85.304;2022-10-15T17:16:42;21.90;98.40
50907;DHT22;36882;27.680;85.304;2022-10-15T17:19:14;21.80;98.50
50907;DHT22;36882;27.680;85.304;2022-10-15T17:21:45;21.80;98.40